OICS

Sanandaj Airport

Airport
ICAO code
OICS
IATA Code
SDG
Summary
ICAO Region
MID
ICAO Territory
Location

Sanandaj, Kurdistan Province

Serving
Sanandaj
Elevation
4522 ft
Coordinates
35° 15' 6" N , 47° 0' 49" E
KCC
Metar
Observation
OICS 010700Z 18017G27KT 9999 FEW040 SCT070 06/M13 Q1012 A2991
Station
Sanandaj
Date/Time
2023-04-01 07:00:00
Wind direction
180°
Wind speed
17 kts
Lowest cloud amount
few clouds
Temperature
6°C
Dew point
-13°C
Humidity
24%
QNH
1012 hPa
Weather condition
n/a

Airport south of the city of Sanandaj, Iran.

Climatology

Warm Semi-arid climate (Köppen climate classification Bsh).

Runways

Designator Length Width Surface Rops
1/19 2640 45 ASP No/No

Airport map

Aerial View

SKYbrary Partners:

Safety knowledge contributed by: